Time;durP1;ratioP1;P1;durP2;ratioP2;P2;SDS_P1;SDS_P2;PMS_P1;PMS_P2;Temp;Humidity;BMP_temperature;BMP_pressure;BME280_temperature;BME280_humidity;BME280_pressure;Samples;Min_cycle;Max_cycle;Signal;HPM_P1;HPM_P2
2022/11/16 00:02:24;;;;;;;;;12.00;9.25;;;;;;;;4989790;28;51161;-53
2022/11/16 00:05:08;;;;;;;;;10.25;9.50;;;;;;;;4982129;28;51024;-53
2022/11/16 00:07:53;;;;;;;;;9.75;9.00;;;;;;;;4982271;28;51243;-51
2022/11/16 00:10:37;;;;;;;;;11.00;9.25;;;;;;;;5001831;28;52796;-54
2022/11/16 00:20:30;;;;;;;;;8.50;7.00;;;;;;;;4860414;28;51093;-51
2022/11/16 00:23:14;;;;;;;;;12.25;9.50;;;;;;;;4916846;28;51365;-53
2022/11/16 00:26:03;;;;;;;;;11.50;8.25;;;;;;;;4921448;28;51276;-50
2022/11/16 00:28:47;;;;;;;;;11.75;9.00;;;;;;;;4915155;28;51441;-50
2022/11/16 00:31:32;;;;;;;;;10.50;9.50;;;;;;;;4921244;28;51177;-51
2022/11/16 00:34:17;;;;;;;;;11.00;11.00;;;;;;;;4921531;28;51183;-52
2022/11/16 00:37:01;;;;;;;;;9.50;7.00;;;;;;;;4921599;28;51459;-54
2022/11/16 00:39:45;;;;;;;;;10.75;8.50;;;;;;;;4920880;28;51192;-53
2022/11/16 00:42:29;;;;;;;;;11.25;8.00;;;;;;;;4920666;28;51732;-53
2022/11/16 00:45:13;;;;;;;;;10.50;7.25;;;;;;;;4923347;28;51086;-51
2022/11/16 00:47:58;;;;;;;;;9.75;8.00;;;;;;;;4920601;28;51117;-52
2022/11/16 00:50:43;;;;;;;;;12.00;10.25;;;;;;;;4920235;28;51302;-51
2022/11/16 00:53:27;;;;;;;;;9.00;9.00;;;;;;;;4943748;28;51413;-47
2022/11/16 00:56:12;;;;;;;;;10.75;9.00;;;;;;;;4995519;28;51087;-52
2022/11/16 00:58:56;;;;;;;;;13.75;9.75;;;;;;;;5000802;28;51116;-51
2022/11/16 01:01:41;;;;;;;;;8.25;8.25;;;;;;;;5000361;28;51024;-52
2022/11/16 01:04:25;;;;;;;;;9.50;8.00;;;;;;;;5000970;28;51095;-52
2022/11/16 01:07:09;;;;;;;;;9.00;8.00;;;;;;;;5000747;28;51102;-52
2022/11/16 01:09:54;;;;;;;;;10.25;9.75;;;;;;;;5000783;28;51048;-53
2022/11/16 01:12:38;;;;;;;;;10.25;10.00;;;;;;;;5000817;28;51457;-53
2022/11/16 01:15:24;;;;;;;;;10.75;10.25;;;;;;;;5000695;28;51269;-56
2022/11/16 01:18:08;;;;;;;;;11.25;8.50;;;;;;;;5000879;28;51151;-49
2022/11/16 01:20:53;;;;;;;;;11.50;9.50;;;;;;;;5000427;28;51020;-55
2022/11/16 01:23:37;;;;;;;;;12.25;10.25;;;;;;;;5001276;28;51063;-52
2022/11/16 01:26:22;;;;;;;;;11.25;9.00;;;;;;;;5000340;28;51577;-51
2022/11/16 01:29:06;;;;;;;;;17.25;10.00;;;;;;;;4985725;28;51349;-53
2022/11/16 01:31:51;;;;;;;;;12.00;10.25;;;;;;;;5000523;28;51107;-53
2022/11/16 01:34:35;;;;;;;;;12.75;9.00;;;;;;;;5000856;28;51057;-54
2022/11/16 01:37:19;;;;;;;;;9.50;7.00;;;;;;;;5000421;28;51096;-53
2022/11/16 01:40:04;;;;;;;;;12.00;7.75;;;;;;;;5000086;28;51154;-54
2022/11/16 01:42:48;;;;;;;;;12.75;9.00;;;;;;;;5000183;28;51163;-48
2022/11/16 01:45:36;;;;;;;;;13.00;9.25;;;;;;;;5000263;28;51094;-50
2022/11/16 01:48:25;;;;;;;;;11.75;9.75;;;;;;;;5000604;28;51224;-49
2022/11/16 01:51:09;;;;;;;;;11.25;10.00;;;;;;;;4997858;28;51327;-52
2022/11/16 01:53:54;;;;;;;;;8.25;8.25;;;;;;;;5000267;28;51087;-52
2022/11/16 01:56:40;;;;;;;;;8.00;7.25;;;;;;;;5000146;28;51184;-49
2022/11/16 01:59:24;;;;;;;;;11.75;9.25;;;;;;;;4999986;28;51076;-53
2022/11/16 02:02:08;;;;;;;;;13.25;11.75;;;;;;;;4999529;28;51031;-53
2022/11/16 02:04:53;;;;;;;;;8.25;8.25;;;;;;;;4999694;28;51119;-53
2022/11/16 02:11:04;;;;;;;;;12.25;8.75;;;;;;;;4999207;28;51075;-50
2022/11/16 02:14:14;;;;;;;;;16.25;11.50;;;;;;;;4999972;28;51171;-52
2022/11/16 02:17:20;;;;;;;;;10.75;9.25;;;;;;;;4999853;28;51327;-53
2022/11/16 02:20:14;;;;;;;;;13.75;10.50;;;;;;;;4999659;28;51392;-51
2022/11/16 02:22:58;;;;;;;;;10.25;7.75;;;;;;;;4998973;28;51253;-54
2022/11/16 02:25:57;;;;;;;;;10.00;9.50;;;;;;;;4999640;28;51068;-53
2022/11/16 02:28:59;;;;;;;;;15.75;9.25;;;;;;;;4999299;28;51237;-52
2022/11/16 02:31:58;;;;;;;;;14.00;12.00;;;;;;;;4998831;28;51060;-54
2022/11/16 02:34:46;;;;;;;;;14.50;12.75;;;;;;;;4999647;28;51143;-52
2022/11/16 02:37:33;;;;;;;;;13.50;11.00;;;;;;;;4985396;28;51189;-52
2022/11/16 02:40:31;;;;;;;;;13.75;13.50;;;;;;;;4985031;28;51083;-53
2022/11/16 02:43:35;;;;;;;;;14.50;10.25;;;;;;;;4979440;28;51115;-50
2022/11/16 02:46:22;;;;;;;;;13.25;11.25;;;;;;;;4995179;28;51465;-52
2022/11/16 02:49:10;;;;;;;;;12.25;10.50;;;;;;;;4999280;28;51084;-51
2022/11/16 02:51:55;;;;;;;;;11.75;10.00;;;;;;;;4999340;28;51177;-54
2022/11/16 02:54:39;;;;;;;;;11.25;10.25;;;;;;;;4999354;28;52630;-52
2022/11/16 02:57:32;;;;;;;;;12.75;9.50;;;;;;;;4999158;28;51560;-50
2022/11/16 03:00:20;;;;;;;;;14.50;10.75;;;;;;;;4999497;28;51483;-52
2022/11/16 03:03:20;;;;;;;;;9.75;9.25;;;;;;;;4998404;28;51125;-52
2022/11/16 03:06:10;;;;;;;;;12.00;9.50;;;;;;;;4999304;28;51083;-52
2022/11/16 03:09:01;;;;;;;;;14.25;9.75;;;;;;;;4999287;28;51574;-49
2022/11/16 03:12:01;;;;;;;;;13.50;12.00;;;;;;;;4999014;28;51286;-49
2022/11/16 03:14:53;;;;;;;;;13.00;9.75;;;;;;;;4996471;28;51242;-53
2022/11/16 03:17:43;;;;;;;;;11.50;9.00;;;;;;;;4986469;28;51204;-54
2022/11/16 03:20:31;;;;;;;;;13.25;9.75;;;;;;;;4979991;28;51512;-52
2022/11/16 03:23:15;;;;;;;;;13.00;11.00;;;;;;;;4983710;28;51103;-51
2022/11/16 03:26:03;;;;;;;;;13.50;10.50;;;;;;;;4995537;28;51379;-49
2022/11/16 03:28:51;;;;;;;;;9.75;9.75;;;;;;;;4982630;28;51162;-49
2022/11/16 03:31:42;;;;;;;;;15.50;12.25;;;;;;;;4983614;28;51158;-53
2022/11/16 03:34:30;;;;;;;;;9.25;9.25;;;;;;;;4982519;28;51091;-53
2022/11/16 03:37:14;;;;;;;;;14.00;11.75;;;;;;;;4983166;28;51442;-52
2022/11/16 03:40:00;;;;;;;;;12.25;10.50;;;;;;;;4993030;28;52062;-53
2022/11/16 03:42:48;;;;;;;;;14.75;11.50;;;;;;;;4982967;28;51123;-54
2022/11/16 03:45:33;;;;;;;;;13.00;11.00;;;;;;;;4982508;28;51543;-54
2022/11/16 03:48:17;;;;;;;;;15.75;11.25;;;;;;;;4991059;28;50986;-53
2022/11/16 03:51:02;;;;;;;;;8.50;8.50;;;;;;;;4990323;28;51376;-54
2022/11/16 03:53:46;;;;;;;;;14.00;10.00;;;;;;;;4986856;28;51549;-52
2022/11/16 03:56:31;;;;;;;;;16.50;10.50;;;;;;;;4982182;28;51039;-53
2022/11/16 03:59:15;;;;;;;;;9.75;9.75;;;;;;;;4981703;28;51145;-52
2022/11/16 04:02:00;;;;;;;;;13.75;9.75;;;;;;;;4982780;28;51039;-53
2022/11/16 04:26:12;;;;;;;;;19.00;16.25;;;;;;;;5001641;28;51178;-50
2022/11/16 04:28:57;;;;;;;;;23.75;18.75;;;;;;;;5000528;28;51426;-53
2022/11/16 04:37:53;;;;;;;;;23.75;17.75;;;;;;;;4999511;28;51052;-54
2022/11/16 04:40:38;;;;;;;;;23.00;18.50;;;;;;;;4998673;28;51770;-51
2022/11/16 04:43:22;;;;;;;;;19.75;17.50;;;;;;;;4984168;28;51143;-56
2022/11/16 04:49:09;;;;;;;;;21.50;19.75;;;;;;;;4996765;28;51100;-53
2022/11/16 04:51:54;;;;;;;;;24.50;18.50;;;;;;;;4999226;28;51083;-53
2022/11/16 04:54:38;;;;;;;;;27.25;20.75;;;;;;;;4981000;28;51152;-50
2022/11/16 04:57:22;;;;;;;;;23.00;19.25;;;;;;;;4995202;28;51080;-50
2022/11/16 05:00:07;;;;;;;;;22.00;20.00;;;;;;;;4989185;28;51135;-53
2022/11/16 05:02:51;;;;;;;;;23.00;21.00;;;;;;;;4990593;28;51648;-53
2022/11/16 05:05:35;;;;;;;;;27.50;24.50;;;;;;;;4994554;28;51127;-52
2022/11/16 15:45:36;;;;;;;;;10.00;10.00;;;;;;;;4359983;32;51086;-57
2022/11/16 15:48:22;;;;;;;;;13.25;10.00;;;;;;;;5111320;27;51090;-57
2022/11/16 15:51:12;;;;;;;;;22.25;15.50;;;;;;;;5097527;27;51587;-56
2022/11/16 15:54:13;;;;;;;;;20.50;16.50;;;;;;;;5097577;27;51124;-57
2022/11/16 15:57:06;;;;;;;;;17.25;8.75;;;;;;;;5097571;27;51447;-57
2022/11/16 15:59:55;;;;;;;;;11.00;11.00;;;;;;;;5111442;27;51063;-56
2022/11/16 16:02:43;;;;;;;;;19.00;11.75;;;;;;;;5097400;27;51155;-57
2022/11/16 16:05:34;;;;;;;;;14.75;10.25;;;;;;;;5097012;27;51377;-57
2022/11/16 16:08:33;;;;;;;;;15.25;12.00;;;;;;;;5097146;27;51096;-57
2022/11/16 16:11:17;;;;;;;;;16.00;11.75;;;;;;;;5097051;27;51079;-57
2022/11/16 16:14:03;;;;;;;;;11.50;9.75;;;;;;;;5104052;27;51048;-57
2022/11/16 16:16:57;;;;;;;;;13.00;11.00;;;;;;;;5117491;27;51016;-56
2022/11/16 16:19:43;;;;;;;;;13.25;10.75;;;;;;;;5117409;27;51181;-56
2022/11/16 16:22:27;;;;;;;;;16.75;10.75;;;;;;;;5098555;27;51201;-56
2022/11/16 16:25:44;;;;;;;;;16.25;10.25;;;;;;;;5096871;27;51065;-57
2022/11/16 16:28:28;;;;;;;;;15.75;11.00;;;;;;;;5112097;27;51107;-57
2022/11/16 16:31:13;;;;;;;;;16.00;14.50;;;;;;;;5117101;27;51054;-56
2022/11/16 16:33:58;;;;;;;;;10.75;10.75;;;;;;;;5117428;27;51125;-56
2022/11/16 16:36:42;;;;;;;;;14.50;11.00;;;;;;;;5114168;27;51102;-56
2022/11/16 16:39:27;;;;;;;;;14.00;13.00;;;;;;;;5097039;27;51139;-56
2022/11/16 16:42:12;;;;;;;;;16.25;14.00;;;;;;;;5111704;27;51392;-56
2022/11/16 16:44:58;;;;;;;;;19.50;14.25;;;;;;;;5091668;27;51123;-56
2022/11/16 16:47:42;;;;;;;;;14.00;11.25;;;;;;;;5082532;27;51371;-53
2022/11/16 16:50:26;;;;;;;;;13.50;11.75;;;;;;;;5099256;27;51150;-52
2022/11/16 16:53:11;;;;;;;;;9.50;9.50;;;;;;;;5103232;27;51217;-53
2022/11/16 16:55:55;;;;;;;;;16.25;13.25;;;;;;;;5102022;27;51016;-51
2022/11/16 16:58:40;;;;;;;;;13.25;12.75;;;;;;;;5102803;27;51465;-52
2022/11/16 17:01:27;;;;;;;;;14.50;13.00;;;;;;;;5084262;27;51103;-50
2022/11/16 17:04:12;;;;;;;;;13.75;12.75;;;;;;;;5091613;27;51056;-54
2022/11/16 17:06:56;;;;;;;;;12.75;12.25;;;;;;;;5102366;27;51189;-50
2022/11/16 17:09:42;;;;;;;;;18.25;12.50;;;;;;;;5102508;27;51486;-53
2022/11/16 17:12:26;;;;;;;;;18.00;16.00;;;;;;;;5102975;27;51419;-55
2022/11/16 17:15:10;;;;;;;;;14.00;11.75;;;;;;;;5101001;27;51134;-53
2022/11/16 17:17:56;;;;;;;;;14.00;10.25;;;;;;;;5102415;27;50996;-53
2022/11/16 17:20:40;;;;;;;;;12.75;9.25;;;;;;;;5102264;27;51468;-50
2022/11/16 17:23:27;;;;;;;;;7.75;7.75;;;;;;;;5102604;27;51057;-51
2022/11/16 17:26:11;;;;;;;;;15.00;10.50;;;;;;;;5093920;27;51145;-52
2022/11/16 17:28:56;;;;;;;;;17.00;11.75;;;;;;;;5125946;27;325014;-50
2022/11/16 17:31:43;;;;;;;;;17.75;14.00;;;;;;;;5139999;27;8782;-52
2022/11/16 17:34:27;;;;;;;;;18.75;13.75;;;;;;;;5139906;27;8806;-50
2022/11/16 17:37:12;;;;;;;;;12.50;12.50;;;;;;;;5139877;27;8813;-54
2022/11/16 17:39:57;;;;;;;;;6.00;3.00;;;;;;;;5139725;27;8786;-53
2022/11/16 17:42:42;;;;;;;;;15.75;13.25;;;;;;;;5139704;27;8774;-52
2022/11/16 17:45:26;;;;;;;;;18.00;14.75;;;;;;;;5119011;27;8793;-50
2022/11/16 17:48:10;;;;;;;;;15.75;13.25;;;;;;;;5119004;27;8769;-53
2022/11/16 17:50:55;;;;;;;;;20.75;14.50;;;;;;;;5118801;27;8792;-52
2022/11/16 17:53:39;;;;;;;;;20.25;14.75;;;;;;;;5118671;27;8797;-49
2022/11/16 17:56:25;;;;;;;;;17.00;14.00;;;;;;;;5118327;27;8895;-54
2022/11/16 17:59:09;;;;;;;;;14.25;9.75;;;;;;;;5118625;27;8796;-50
2022/11/16 18:01:53;;;;;;;;;19.00;12.50;;;;;;;;5118786;27;8773;-51
2022/11/16 18:04:38;;;;;;;;;17.50;13.00;;;;;;;;5134798;27;8802;-53
2022/11/16 18:07:22;;;;;;;;;16.25;14.25;;;;;;;;5139419;27;8785;-52
2022/11/16 18:10:07;;;;;;;;;20.50;13.25;;;;;;;;5118443;27;8772;-52
2022/11/16 18:12:51;;;;;;;;;17.25;14.00;;;;;;;;5118562;27;9559;-51
2022/11/16 18:15:35;;;;;;;;;14.00;11.75;;;;;;;;5137503;27;8785;-52
2022/11/16 18:18:19;;;;;;;;;14.00;12.00;;;;;;;;5138570;27;8790;-51
2022/11/16 18:21:04;;;;;;;;;22.50;17.25;;;;;;;;5139009;27;8777;-52
2022/11/16 18:23:48;;;;;;;;;28.25;25.00;;;;;;;;5138763;27;8794;-52
2022/11/16 18:26:33;;;;;;;;;16.00;14.25;;;;;;;;5138628;27;8758;-52
2022/11/16 18:29:18;;;;;;;;;15.25;12.50;;;;;;;;5138749;27;8774;-51
2022/11/16 18:32:02;;;;;;;;;9.00;9.00;;;;;;;;5134019;27;8776;-53
2022/11/16 18:34:46;;;;;;;;;12.25;10.00;;;;;;;;5117723;27;8793;-49
2022/11/16 18:37:31;;;;;;;;;12.50;12.50;;;;;;;;5117935;27;8793;-54
2022/11/16 18:40:16;;;;;;;;;15.25;14.00;;;;;;;;5117972;27;8781;-56
2022/11/16 18:43:01;;;;;;;;;15.50;12.75;;;;;;;;5136733;27;8785;-55
2022/11/16 18:45:46;;;;;;;;;13.50;11.25;;;;;;;;5128884;27;8802;-54
2022/11/16 18:48:30;;;;;;;;;15.00;11.75;;;;;;;;5116747;27;8773;-50
2022/11/16 18:51:15;;;;;;;;;13.25;9.50;;;;;;;;5117776;27;8785;-55
2022/11/16 18:53:59;;;;;;;;;11.50;10.00;;;;;;;;5117504;27;8805;-52
2022/11/16 18:56:44;;;;;;;;;11.50;11.00;;;;;;;;5117766;27;8784;-51
2022/11/16 18:59:28;;;;;;;;;11.25;10.75;;;;;;;;5117720;27;8776;-52
2022/11/16 19:02:13;;;;;;;;;12.25;10.25;;;;;;;;5117549;27;8764;-52
2022/11/16 19:04:57;;;;;;;;;17.00;15.00;;;;;;;;5117605;27;8808;-54
2022/11/16 19:07:41;;;;;;;;;14.25;11.50;;;;;;;;5133311;27;8782;-53
2022/11/16 19:10:26;;;;;;;;;9.25;7.75;;;;;;;;5138218;27;8766;-50
2022/11/16 19:13:10;;;;;;;;;10.00;9.50;;;;;;;;5138674;27;8794;-52
2022/11/16 19:15:54;;;;;;;;;15.50;14.00;;;;;;;;5139072;27;8782;-52
2022/11/16 19:18:39;;;;;;;;;13.75;12.75;;;;;;;;5138125;27;9649;-52
2022/11/16 19:21:23;;;;;;;;;9.50;7.50;;;;;;;;5137978;27;8790;-53
2022/11/16 19:24:08;;;;;;;;;32.75;29.50;;;;;;;;5137831;27;8794;-54
2022/11/16 19:26:52;;;;;;;;;13.25;10.75;;;;;;;;5137932;27;8798;-51
2022/11/16 19:29:36;;;;;;;;;16.00;15.00;;;;;;;;5137741;27;8912;-47
2022/11/16 19:32:21;;;;;;;;;17.75;13.75;;;;;;;;5137780;27;8774;-50
2022/11/16 19:35:05;;;;;;;;;13.25;11.75;;;;;;;;5137717;27;8790;-51
2022/11/16 19:37:49;;;;;;;;;16.00;11.00;;;;;;;;5137521;27;8786;-48
2022/11/16 19:40:34;;;;;;;;;12.75;10.50;;;;;;;;5137728;27;9733;-51
2022/11/16 19:43:20;;;;;;;;;16.75;13.00;;;;;;;;5137499;27;9482;-53
2022/11/16 19:46:06;;;;;;;;;11.25;10.00;;;;;;;;5137554;27;8793;-54
2022/11/16 19:48:51;;;;;;;;;13.00;12.75;;;;;;;;5133942;27;8774;-51
2022/11/16 19:51:36;;;;;;;;;10.75;9.75;;;;;;;;5137780;27;8762;-53
2022/11/16 19:54:20;;;;;;;;;9.75;8.50;;;;;;;;5137288;27;8798;-50
2022/11/16 19:57:05;;;;;;;;;15.50;10.25;;;;;;;;5136875;27;8774;-53
2022/11/16 19:59:49;;;;;;;;;12.00;11.25;;;;;;;;5137605;27;8766;-51
2022/11/16 20:02:35;;;;;;;;;9.25;8.75;;;;;;;;5137113;27;8774;-48
2022/11/16 20:05:19;;;;;;;;;12.00;9.75;;;;;;;;5137427;27;8778;-53
2022/11/16 20:08:04;;;;;;;;;9.75;8.75;;;;;;;;5137422;27;8786;-53
2022/11/16 20:10:48;;;;;;;;;10.00;10.00;;;;;;;;5137180;27;8797;-52
2022/11/16 20:13:32;;;;;;;;;12.00;12.00;;;;;;;;5137308;27;8794;-53
2022/11/16 20:16:18;;;;;;;;;14.75;11.00;;;;;;;;5137507;27;9564;-50
2022/11/16 20:19:03;;;;;;;;;12.50;11.75;;;;;;;;5137218;27;8766;-49
2022/11/16 20:21:47;;;;;;;;;10.00;10.00;;;;;;;;5140843;27;8813;-52
2022/11/16 20:24:31;;;;;;;;;16.50;13.75;;;;;;;;5141312;27;8798;-49
2022/11/16 20:27:16;;;;;;;;;8.00;5.75;;;;;;;;5141037;27;8774;-51
2022/11/16 20:30:00;;;;;;;;;15.75;12.75;;;;;;;;5141094;27;9553;-50
2022/11/16 20:32:45;;;;;;;;;12.25;11.50;;;;;;;;5124145;27;8792;-52
2022/11/16 20:35:29;;;;;;;;;17.25;13.25;;;;;;;;5120227;27;9583;-49
2022/11/16 20:38:14;;;;;;;;;13.25;10.25;;;;;;;;5120173;27;8781;-49
2022/11/16 20:41:06;;;;;;;;;15.75;11.50;;;;;;;;5120351;27;8789;-52
2022/11/16 20:43:51;;;;;;;;;11.00;9.50;;;;;;;;5120076;27;8820;-51
2022/11/16 20:46:37;;;;;;;;;13.00;10.25;;;;;;;;5119884;27;9551;-52
2022/11/16 20:49:21;;;;;;;;;13.25;9.00;;;;;;;;5120160;27;8788;-52
2022/11/16 20:52:06;;;;;;;;;11.75;11.00;;;;;;;;5120102;27;8765;-49
2022/11/16 20:54:50;;;;;;;;;14.25;13.25;;;;;;;;5119751;27;8936;-55
2022/11/16 20:57:35;;;;;;;;;13.00;11.50;;;;;;;;5130707;27;8778;-51
2022/11/16 21:00:19;;;;;;;;;15.25;13.00;;;;;;;;5140738;27;8754;-51
2022/11/16 21:03:03;;;;;;;;;12.50;11.50;;;;;;;;5140279;27;8774;-55
2022/11/16 21:05:49;;;;;;;;;14.25;11.00;;;;;;;;5140577;27;8775;-50
2022/11/16 21:08:35;;;;;;;;;12.00;10.00;;;;;;;;5140215;27;9537;-52
2022/11/16 21:14:41;;;;;;;;;13.75;10.00;;;;;;;;5140116;27;8781;-54
2022/11/16 21:17:26;;;;;;;;;12.75;8.75;;;;;;;;5139867;27;8802;-49
2022/11/16 21:20:10;;;;;;;;;14.25;10.00;;;;;;;;5140347;27;8886;-50
2022/11/16 21:22:54;;;;;;;;;10.75;8.75;;;;;;;;5140137;27;8751;-52
2022/11/16 21:25:39;;;;;;;;;15.00;10.75;;;;;;;;5129405;27;8761;-52
2022/11/16 21:28:23;;;;;;;;;11.00;9.75;;;;;;;;5119397;27;8765;-53
2022/11/16 21:31:12;;;;;;;;;13.50;11.00;;;;;;;;5119367;27;8789;-54
2022/11/16 21:33:56;;;;;;;;;15.50;11.25;;;;;;;;5124605;27;8766;-52
2022/11/16 21:36:41;;;;;;;;;13.25;11.50;;;;;;;;5119782;27;8776;-50
2022/11/16 21:39:26;;;;;;;;;15.50;10.00;;;;;;;;5119234;27;8919;-50
2022/11/16 21:42:10;;;;;;;;;18.25;11.25;;;;;;;;5129043;27;8773;-49
2022/11/16 21:44:54;;;;;;;;;14.75;10.25;;;;;;;;5118873;27;8816;-53
2022/11/16 21:47:39;;;;;;;;;9.00;9.00;;;;;;;;5131391;27;8780;-51
2022/11/16 21:50:23;;;;;;;;;13.50;9.00;;;;;;;;5122372;27;8760;-55
2022/11/16 21:53:08;;;;;;;;;12.75;10.25;;;;;;;;5118605;27;8785;-51
2022/11/16 21:55:52;;;;;;;;;11.00;9.00;;;;;;;;5127072;27;8914;-49
2022/11/16 21:58:37;;;;;;;;;14.25;9.00;;;;;;;;5128145;27;8772;-51
2022/11/16 22:01:22;;;;;;;;;10.25;8.00;;;;;;;;5121149;27;9553;-51
2022/11/16 22:07:36;;;;;;;;;10.75;9.50;;;;;;;;5120901;27;8785;-54
2022/11/16 22:10:20;;;;;;;;;11.00;10.25;;;;;;;;5136393;27;8782;-55
2022/11/16 22:13:05;;;;;;;;;12.00;9.50;;;;;;;;5122118;27;8764;-49
2022/11/16 22:15:49;;;;;;;;;13.25;11.25;;;;;;;;5123668;27;8784;-49
2022/11/16 22:18:34;;;;;;;;;43.25;36.00;;;;;;;;5121974;27;8755;-50
2022/11/16 22:21:18;;;;;;;;;44.75;34.25;;;;;;;;5125088;27;8792;-49
2022/11/16 22:24:02;;;;;;;;;36.25;30.50;;;;;;;;5123851;27;9547;-54
2022/11/16 22:26:47;;;;;;;;;53.75;43.50;;;;;;;;5118121;27;8777;-54
2022/11/16 22:29:32;;;;;;;;;31.00;26.75;;;;;;;;5118195;27;8772;-50
2022/11/16 22:32:16;;;;;;;;;39.75;34.50;;;;;;;;5138001;27;8786;-50
2022/11/16 22:35:00;;;;;;;;;50.75;40.75;;;;;;;;5138442;27;8785;-53
2022/11/16 22:37:45;;;;;;;;;42.75;34.25;;;;;;;;5138545;27;8774;-55
2022/11/16 22:40:29;;;;;;;;;46.50;38.00;;;;;;;;5138769;27;8758;-52
2022/11/16 22:43:13;;;;;;;;;61.50;48.50;;;;;;;;5137818;27;8762;-51
2022/11/16 22:45:59;;;;;;;;;34.75;26.75;;;;;;;;5138330;27;8786;-53
2022/11/16 22:48:43;;;;;;;;;45.25;37.00;;;;;;;;5138561;27;8774;-48
2022/11/16 22:51:28;;;;;;;;;28.00;23.00;;;;;;;;5138462;27;9569;-49
2022/11/16 22:54:14;;;;;;;;;23.00;18.25;;;;;;;;5138278;27;8790;-51
2022/11/16 22:56:58;;;;;;;;;30.25;24.75;;;;;;;;5138176;27;8782;-53
2022/11/16 22:59:43;;;;;;;;;30.75;23.75;;;;;;;;5138237;27;8790;-51
2022/11/16 23:02:27;;;;;;;;;39.00;30.50;;;;;;;;5138242;27;8774;-52
2022/11/16 23:05:11;;;;;;;;;30.25;24.25;;;;;;;;5117393;27;8808;-48
2022/11/16 23:07:56;;;;;;;;;50.00;36.50;;;;;;;;5117350;27;8777;-53
2022/11/16 23:16:48;;;;;;;;;20.00;19.00;;;;;;;;5138187;27;8770;-48
2022/11/16 23:28:41;;;;;;;;;12.00;10.00;;;;;;;;5138085;27;8920;-52
2022/11/16 23:31:26;;;;;;;;;14.00;10.00;;;;;;;;5138123;27;8786;-52
2022/11/16 23:34:10;;;;;;;;;19.00;14.00;;;;;;;;5137621;27;8786;-46
2022/11/16 23:37:00;;;;;;;;;30.25;23.00;;;;;;;;5137818;27;8770;-52
2022/11/16 23:39:44;;;;;;;;;22.00;14.50;;;;;;;;5137936;27;8766;-52
2022/11/16 23:45:31;;;;;;;;;14.25;11.50;;;;;;;;5137460;27;8794;-50
2022/11/16 23:48:17;;;;;;;;;8.50;5.25;;;;;;;;5137600;27;8794;-49
2022/11/16 23:51:01;;;;;;;;;16.00;13.25;;;;;;;;5137729;27;8766;-50
2022/11/16 23:53:45;;;;;;;;;29.00;23.00;;;;;;;;5137686;27;8802;-53
2022/11/16 23:56:30;;;;;;;;;15.75;12.50;;;;;;;;5140731;27;8762;-51
2022/11/16 23:59:14;;;;;;;;;16.00;13.50;;;;;;;;5141676;27;8790;-52
